sensor_id;sensor_type;location;lat;lon;timestamp;pressure;altitude;pressure_sealevel;temperature;humidity
17260;BME280;8746;49.230;9.220;2023-12-28T00:00:11;99953.06;;;0.59;100.00
17260;BME280;8746;49.230;9.220;2023-12-28T00:02:37;99953.03;;;0.63;100.00
17260;BME280;8746;49.230;9.220;2023-12-28T00:05:02;99970.34;;;0.71;100.00
17260;BME280;8746;49.230;9.220;2023-12-28T00:07:28;99972.09;;;0.61;100.00
17260;BME280;8746;49.230;9.220;2023-12-28T00:09:53;99985.09;;;0.69;100.00
17260;BME280;8746;49.230;9.220;2023-12-28T00:12:18;99985.97;;;0.78;100.00
17260;BME280;8746;49.230;9.220;2023-12-28T00:14:44;99986.81;;;0.74;100.00
17260;BME280;8746;49.230;9.220;2023-12-28T00:17:09;99969.50;;;0.67;100.00
17260;BME280;8746;49.230;9.220;2023-12-28T00:19:34;99973.81;;;0.63;100.00
17260;BME280;8746;49.230;9.220;2023-12-28T00:22:00;99972.94;;;0.51;100.00
17260;BME280;8746;49.230;9.220;2023-12-28T00:24:25;99981.56;;;0.46;100.00
17260;BME280;8746;49.230;9.220;2023-12-28T00:26:50;99984.19;;;0.36;100.00
17260;BME280;8746;49.230;9.220;2023-12-28T00:29:16;99986.78;;;0.37;100.00
17260;BME280;8746;49.230;9.220;2023-12-28T00:31:41;99991.94;;;0.32;100.00
17260;BME280;8746;49.230;9.220;2023-12-28T00:34:07;99997.16;;;0.46;100.00
17260;BME280;8746;49.230;9.220;2023-12-28T00:36:32;99984.16;;;0.32;100.00
17260;BME280;8746;49.230;9.220;2023-12-28T00:38:57;99985.03;;;0.33;100.00
17260;BME280;8746;49.230;9.220;2023-12-28T00:41:23;99986.72;;;0.22;100.00
17260;BME280;8746;49.230;9.220;2023-12-28T00:43:48;99987.63;;;0.31;100.00
17260;BME280;8746;49.230;9.220;2023-12-28T00:46:13;99975.47;;;0.12;100.00
17260;BME280;8746;49.230;9.220;2023-12-28T00:48:39;99985.88;;;0.30;100.00
17260;BME280;8746;49.230;9.220;2023-12-28T00:51:04;99974.63;;;0.19;100.00
17260;BME280;8746;49.230;9.220;2023-12-28T00:53:29;99979.84;;;0.28;100.00
17260;BME280;8746;49.230;9.220;2023-12-28T00:55:55;99982.38;;;0.13;100.00
17260;BME280;8746;49.230;9.220;2023-12-28T00:58:20;99978.06;;;0.15;100.00
17260;BME280;8746;49.230;9.220;2023-12-28T01:00:45;99994.47;;;0.11;100.00
17260;BME280;8746;49.230;9.220;2023-12-28T01:03:11;99979.75;;;0.02;100.00
17260;BME280;8746;49.230;9.220;2023-12-28T01:05:36;99993.56;;;0.01;100.00
17260;BME280;8746;49.230;9.220;2023-12-28T01:08:02;99977.19;;;0.13;100.00
17260;BME280;8746;49.230;9.220;2023-12-28T01:10:27;99989.31;;;0.15;100.00
17260;BME280;8746;49.230;9.220;2023-12-28T01:12:53;99984.09;;;0.00;100.00
17260;BME280;8746;49.230;9.220;2023-12-28T01:15:18;99995.31;;;0.01;100.00
17260;BME280;8746;49.230;9.220;2023-12-28T01:17:45;99983.19;;;-0.01;100.00
17260;BME280;8746;49.230;9.220;2023-12-28T01:20:11;99985.84;;;0.09;100.00
17260;BME280;8746;49.230;9.220;2023-12-28T01:22:37;100000.53;;;0.11;100.00
17260;BME280;8746;49.230;9.220;2023-12-28T01:25:02;100000.53;;;0.10;100.00
17260;BME280;8746;49.230;9.220;2023-12-28T01:27:28;99993.66;;;0.21;100.00
17260;BME280;8746;49.230;9.220;2023-12-28T01:29:53;100004.00;;;0.17;100.00
17260;BME280;8746;49.230;9.220;2023-12-28T01:32:18;99994.50;;;0.20;100.00
17260;BME280;8746;49.230;9.220;2023-12-28T01:34:43;99996.22;;;0.10;100.00
17260;BME280;8746;49.230;9.220;2023-12-28T01:37:10;99998.84;;;0.20;100.00
17260;BME280;8746;49.230;9.220;2023-12-28T01:39:35;99995.34;;;0.14;100.00
17260;BME280;8746;49.230;9.220;2023-12-28T01:42:00;99997.94;;;0.10;100.00
17260;BME280;8746;49.230;9.220;2023-12-28T01:44:26;99998.75;;;-0.01;100.00
17260;BME280;8746;49.230;9.220;2023-12-28T01:46:52;100016.00;;;-0.13;100.00
17260;BME280;8746;49.230;9.220;2023-12-28T01:49:17;100011.72;;;-0.07;100.00
17260;BME280;8746;49.230;9.220;2023-12-28T01:51:44;100005.69;;;-0.01;100.00
17260;BME280;8746;49.230;9.220;2023-12-28T01:54:10;100019.50;;;-0.01;100.00
17260;BME280;8746;49.230;9.220;2023-12-28T01:56:35;100028.19;;;0.00;100.00
17260;BME280;8746;49.230;9.220;2023-12-28T01:59:01;100024.69;;;-0.01;100.00
17260;BME280;8746;49.230;9.220;2023-12-28T02:01:26;100019.50;;;-0.05;100.00
17260;BME280;8746;49.230;9.220;2023-12-28T02:03:53;100018.53;;;-0.26;100.00
17260;BME280;8746;49.230;9.220;2023-12-28T02:06:22;100022.91;;;-0.12;100.00
17260;BME280;8746;49.230;9.220;2023-12-28T02:08:48;100016.88;;;-0.11;100.00
17260;BME280;8746;49.230;9.220;2023-12-28T02:11:13;100018.59;;;-0.13;100.00
17260;BME280;8746;49.230;9.220;2023-12-28T02:13:39;100012.56;;;-0.11;100.00
17260;BME280;8746;49.230;9.220;2023-12-28T02:16:13;100015.19;;;-0.05;100.00
17260;BME280;8746;49.230;9.220;2023-12-28T02:18:43;100022.13;;;0.03;100.00
17260;BME280;8746;49.230;9.220;2023-12-28T02:21:12;100024.75;;;0.10;100.00
17260;BME280;8746;49.230;9.220;2023-12-28T02:23:38;100029.91;;;0.07;100.00
17260;BME280;8746;49.230;9.220;2023-12-28T02:26:03;100028.16;;;-0.05;100.00
17260;BME280;8746;49.230;9.220;2023-12-28T02:28:28;100022.97;;;-0.03;100.00
17260;BME280;8746;49.230;9.220;2023-12-28T02:30:54;100029.84;;;-0.11;100.00
17260;BME280;8746;49.230;9.220;2023-12-28T02:33:25;100029.88;;;-0.08;100.00
17260;BME280;8746;49.230;9.220;2023-12-28T02:36:11;100033.31;;;-0.06;100.00
17260;BME280;8746;49.230;9.220;2023-12-28T02:38:37;100022.94;;;-0.06;100.00
17260;BME280;8746;49.230;9.220;2023-12-28T02:41:04;100016.88;;;-0.10;100.00
17260;BME280;8746;49.230;9.220;2023-12-28T02:43:30;100020.28;;;-0.20;100.00
17260;BME280;8746;49.230;9.220;2023-12-28T02:45:55;100028.09;;;-0.12;100.00
17260;BME280;8746;49.230;9.220;2023-12-28T02:48:21;100030.69;;;-0.17;100.00
17260;BME280;8746;49.230;9.220;2023-12-28T02:50:46;100034.19;;;-0.07;100.00
17260;BME280;8746;49.230;9.220;2023-12-28T02:53:12;100030.78;;;0.02;100.00
17260;BME280;8746;49.230;9.220;2023-12-28T02:55:38;100044.63;;;0.13;100.00
17260;BME280;8746;49.230;9.220;2023-12-28T02:58:03;100038.63;;;0.26;100.00
17260;BME280;8746;49.230;9.220;2023-12-28T03:00:29;100036.94;;;0.35;100.00
17260;BME280;8746;49.230;9.220;2023-12-28T03:02:54;100036.97;;;0.39;100.00
17260;BME280;8746;49.230;9.220;2023-12-28T03:05:19;100035.19;;;0.37;100.00
17260;BME280;8746;49.230;9.220;2023-12-28T03:07:45;100037.00;;;0.52;100.00
17260;BME280;8746;49.230;9.220;2023-12-28T03:10:10;100039.56;;;0.55;100.00
17260;BME280;8746;49.230;9.220;2023-12-28T03:12:36;100019.63;;;0.37;100.00
17260;BME280;8746;49.230;9.220;2023-12-28T03:15:02;100024.84;;;0.44;100.00
17260;BME280;8746;49.230;9.220;2023-12-28T03:17:28;100015.34;;;0.48;100.00
17260;BME280;8746;49.230;9.220;2023-12-28T03:19:56;100027.47;;;0.51;100.00
17260;BME280;8746;49.230;9.220;2023-12-28T03:22:21;100030.06;;;0.64;100.00
17260;BME280;8746;49.230;9.220;2023-12-28T03:24:46;100022.25;;;0.52;100.00
17260;BME280;8746;49.230;9.220;2023-12-28T03:27:12;100031.78;;;0.55;100.00
17260;BME280;8746;49.230;9.220;2023-12-28T03:29:37;100025.72;;;0.57;100.00
17260;BME280;8746;49.230;9.220;2023-12-28T03:32:03;100037.88;;;0.66;100.00
17260;BME280;8746;49.230;9.220;2023-12-28T03:34:28;100037.91;;;0.72;100.00
17260;BME280;8746;49.230;9.220;2023-12-28T03:36:55;100021.41;;;0.67;100.00
17260;BME280;8746;49.230;9.220;2023-12-28T03:39:22;100008.44;;;0.73;100.00
17260;BME280;8746;49.230;9.220;2023-12-28T03:41:48;100017.13;;;0.82;100.00
17260;BME280;8746;49.230;9.220;2023-12-28T03:44:13;100011.06;;;0.86;100.00
17260;BME280;8746;49.230;9.220;2023-12-28T03:46:39;100007.59;;;0.90;100.00
17260;BME280;8746;49.230;9.220;2023-12-28T03:49:05;99993.75;;;0.92;100.00
17260;BME280;8746;49.230;9.220;2023-12-28T03:51:30;99998.06;;;0.96;100.00
17260;BME280;8746;49.230;9.220;2023-12-28T03:53:56;99998.06;;;1.06;100.00
17260;BME280;8746;49.230;9.220;2023-12-28T03:56:22;100001.53;;;1.05;100.00
17260;BME280;8746;49.230;9.220;2023-12-28T03:58:48;99995.47;;;1.07;100.00
17260;BME280;8746;49.230;9.220;2023-12-28T04:01:19;99991.13;;;1.06;100.00
17260;BME280;8746;49.230;9.220;2023-12-28T04:03:45;99994.63;;;1.11;100.00
17260;BME280;8746;49.230;9.220;2023-12-28T04:06:11;99984.22;;;1.07;100.00
17260;BME280;8746;49.230;9.220;2023-12-28T04:08:37;99996.31;;;1.12;100.00
17260;BME280;8746;49.230;9.220;2023-12-28T04:11:03;99998.06;;;1.10;100.00
17260;BME280;8746;49.230;9.220;2023-12-28T04:13:28;99985.94;;;1.12;100.00
17260;BME280;8746;49.230;9.220;2023-12-28T04:15:53;99998.94;;;0.91;100.00
17260;BME280;8746;49.230;9.220;2023-12-28T04:18:19;99989.41;;;0.96;100.00
17260;BME280;8746;49.230;9.220;2023-12-28T04:20:44;99990.31;;;0.86;100.00
17260;BME280;8746;49.230;9.220;2023-12-28T04:23:10;99992.00;;;0.90;100.00
17260;BME280;8746;49.230;9.220;2023-12-28T04:25:35;99974.72;;;0.86;100.00
17260;BME280;8746;49.230;9.220;2023-12-28T04:28:01;99982.47;;;0.84;100.00
17260;BME280;8746;49.230;9.220;2023-12-28T04:30:26;99978.16;;;0.86;100.00
17260;BME280;8746;49.230;9.220;2023-12-28T04:32:52;99994.59;;;0.91;100.00
17260;BME280;8746;49.230;9.220;2023-12-28T04:35:18;99998.06;;;0.96;100.00
17260;BME280;8746;49.230;9.220;2023-12-28T04:37:43;99992.88;;;1.00;100.00
17260;BME280;8746;49.230;9.220;2023-12-28T04:40:09;99995.50;;;0.92;100.00
17260;BME280;8746;49.230;9.220;2023-12-28T04:42:34;99992.88;;;1.01;100.00
17260;BME280;8746;49.230;9.220;2023-12-28T04:44:59;99984.22;;;0.99;100.00
17260;BME280;8746;49.230;9.220;2023-12-28T04:47:25;99998.94;;;0.97;100.00
17260;BME280;8746;49.230;9.220;2023-12-28T04:49:50;99993.72;;;1.00;100.00
17260;BME280;8746;49.230;9.220;2023-12-28T04:52:15;100005.00;;;1.08;100.00
17260;BME280;8746;49.230;9.220;2023-12-28T04:54:41;100007.59;;;1.18;100.00
17260;BME280;8746;49.230;9.220;2023-12-28T04:57:06;100013.66;;;1.01;100.00
17260;BME280;8746;49.230;9.220;2023-12-28T04:59:38;100026.66;;;1.17;100.00
17260;BME280;8746;49.230;9.220;2023-12-28T05:02:03;100041.38;;;1.25;100.00
17260;BME280;8746;49.230;9.220;2023-12-28T05:04:29;100038.75;;;1.33;100.00
17260;BME280;8746;49.230;9.220;2023-12-28T05:06:54;100053.47;;;1.53;100.00
17260;BME280;8746;49.230;9.220;2023-12-28T05:09:19;100043.09;;;1.48;100.00
17260;BME280;8746;49.230;9.220;2023-12-28T05:11:45;100043.97;;;1.35;100.00
17260;BME280;8746;49.230;9.220;2023-12-28T05:14:10;100044.84;;;1.38;100.00
17260;BME280;8746;49.230;9.220;2023-12-28T05:16:36;100049.19;;;1.28;100.00
17260;BME280;8746;49.230;9.220;2023-12-28T05:19:01;100052.66;;;1.32;100.00
17260;BME280;8746;49.230;9.220;2023-12-28T05:21:26;100045.69;;;1.45;100.00
17260;BME280;8746;49.230;9.220;2023-12-28T05:23:52;100058.69;;;1.43;100.00
17260;BME280;8746;49.230;9.220;2023-12-28T05:26:17;100063.88;;;1.50;100.00
17260;BME280;8746;49.230;9.220;2023-12-28T05:28:42;100064.72;;;1.61;100.00
17260;BME280;8746;49.230;9.220;2023-12-28T05:31:08;100056.91;;;1.67;100.00
17260;BME280;8746;49.230;9.220;2023-12-28T05:33:33;100063.84;;;1.70;100.00
17260;BME280;8746;49.230;9.220;2023-12-28T05:35:58;100057.78;;;1.75;100.00
17260;BME280;8746;49.230;9.220;2023-12-28T05:38:24;100061.22;;;1.84;100.00
17260;BME280;8746;49.230;9.220;2023-12-28T05:40:49;100065.53;;;1.91;100.00
17260;BME280;8746;49.230;9.220;2023-12-28T05:43:14;100059.44;;;1.92;100.00
17260;BME280;8746;49.230;9.220;2023-12-28T05:45:40;100058.59;;;1.91;100.00
17260;BME280;8746;49.230;9.220;2023-12-28T05:48:05;100061.22;;;1.90;100.00
17260;BME280;8746;49.230;9.220;2023-12-28T05:50:31;100073.31;;;1.99;100.00
17260;BME280;8746;49.230;9.220;2023-12-28T05:52:56;100067.25;;;2.00;100.00
17260;BME280;8746;49.230;9.220;2023-12-28T05:55:22;100071.59;;;1.96;100.00
17260;BME280;8746;49.230;9.220;2023-12-28T05:57:47;100082.00;;;1.91;100.00
17260;BME280;8746;49.230;9.220;2023-12-28T06:00:13;100075.06;;;1.98;100.00
17260;BME280;8746;49.230;9.220;2023-12-28T06:02:39;100075.91;;;2.05;100.00
17260;BME280;8746;49.230;9.220;2023-12-28T06:05:05;100080.22;;;2.11;100.00
17260;BME280;8746;49.230;9.220;2023-12-28T06:07:31;100074.13;;;2.16;100.00
17260;BME280;8746;49.230;9.220;2023-12-28T06:09:56;100087.09;;;2.27;100.00
17260;BME280;8746;49.230;9.220;2023-12-28T06:12:21;100085.31;;;2.38;100.00
17260;BME280;8746;49.230;9.220;2023-12-28T06:14:47;100087.03;;;2.43;100.00
17260;BME280;8746;49.230;9.220;2023-12-28T06:17:12;100091.34;;;2.47;100.00
17260;BME280;8746;49.230;9.220;2023-12-28T06:19:40;100096.50;;;2.58;100.00
17260;BME280;8746;49.230;9.220;2023-12-28T06:22:05;100096.50;;;2.59;100.00
17260;BME280;8746;49.230;9.220;2023-12-28T06:24:31;100098.22;;;2.63;100.00
17260;BME280;8746;49.230;9.220;2023-12-28T06:26:56;100095.59;;;2.66;100.00
17260;BME280;8746;49.230;9.220;2023-12-28T06:29:21;100093.84;;;2.68;100.00
17260;BME280;8746;49.230;9.220;2023-12-28T06:31:47;100092.97;;;2.69;100.00
17260;BME280;8746;49.230;9.220;2023-12-28T06:34:12;100107.69;;;2.80;100.00
17260;BME280;8746;49.230;9.220;2023-12-28T06:36:37;100100.63;;;2.96;100.00
17260;BME280;8746;49.230;9.220;2023-12-28T06:39:03;100111.06;;;2.97;100.00
17260;BME280;8746;49.230;9.220;2023-12-28T06:41:28;100112.22;;;3.71;100.00
17260;BME280;8746;49.230;9.220;2023-12-28T06:43:53;100115.56;;;3.85;100.00
17260;BME280;8746;49.230;9.220;2023-12-28T06:46:19;100113.59;;;4.08;100.00
17260;BME280;8746;49.230;9.220;2023-12-28T06:48:45;100112.53;;;4.23;100.00
17260;BME280;8746;49.230;9.220;2023-12-28T06:51:16;100108.81;;;4.44;100.00
17260;BME280;8746;49.230;9.220;2023-12-28T06:53:42;100108.09;;;4.96;100.00
17260;BME280;8746;49.230;9.220;2023-12-28T06:56:09;100106.63;;;5.36;100.00
17260;BME280;8746;49.230;9.220;2023-12-28T06:58:34;100108.34;;;5.39;100.00
17260;BME280;8746;49.230;9.220;2023-12-28T07:01:03;100109.78;;;5.55;100.00
17260;BME280;8746;49.230;9.220;2023-12-28T07:03:28;100102.66;;;5.67;100.00
17260;BME280;8746;49.230;9.220;2023-12-28T07:05:55;100113.91;;;5.72;100.00
17260;BME280;8746;49.230;9.220;2023-12-28T07:08:20;100120.75;;;5.79;100.00
17260;BME280;8746;49.230;9.220;2023-12-28T07:10:46;100107.47;;;5.90;100.00
17260;BME280;8746;49.230;9.220;2023-12-28T07:13:11;100123.16;;;5.91;100.00
17260;BME280;8746;49.230;9.220;2023-12-28T07:15:36;100133.50;;;5.98;100.00
17260;BME280;8746;49.230;9.220;2023-12-28T07:18:02;100128.19;;;6.04;100.00
17260;BME280;8746;49.230;9.220;2023-12-28T07:20:27;100131.63;;;6.07;100.00
17260;BME280;8746;49.230;9.220;2023-12-28T07:22:53;100120.97;;;6.15;100.00
17260;BME280;8746;49.230;9.220;2023-12-28T07:25:18;100124.44;;;6.17;100.00
17260;BME280;8746;49.230;9.220;2023-12-28T07:27:43;100120.00;;;6.21;100.00
17260;BME280;8746;49.230;9.220;2023-12-28T07:30:10;100125.25;;;6.21;100.00
17260;BME280;8746;49.230;9.220;2023-12-28T07:32:35;100128.50;;;6.32;100.00
17260;BME280;8746;49.230;9.220;2023-12-28T07:35:01;100127.72;;;6.29;100.00
17260;BME280;8746;49.230;9.220;2023-12-28T07:37:26;100124.38;;;6.22;100.00
17260;BME280;8746;49.230;9.220;2023-12-28T07:39:52;100128.72;;;6.23;100.00
17260;BME280;8746;49.230;9.220;2023-12-28T07:42:18;100126.09;;;6.21;100.00
17260;BME280;8746;49.230;9.220;2023-12-28T07:44:43;100128.75;;;6.20;100.00
17260;BME280;8746;49.230;9.220;2023-12-28T07:47:09;100122.78;;;6.13;100.00
17260;BME280;8746;49.230;9.220;2023-12-28T07:49:34;100124.53;;;6.13;100.00
17260;BME280;8746;49.230;9.220;2023-12-28T07:51:59;100136.59;;;6.21;100.00
17260;BME280;8746;49.230;9.220;2023-12-28T07:54:25;100135.81;;;6.16;100.00
17260;BME280;8746;49.230;9.220;2023-12-28T07:56:50;100135.66;;;6.25;100.00
17260;BME280;8746;49.230;9.220;2023-12-28T07:59:15;100142.53;;;6.30;100.00
17260;BME280;8746;49.230;9.220;2023-12-28T08:01:41;100130.31;;;6.30;100.00
17260;BME280;8746;49.230;9.220;2023-12-28T08:04:06;100126.88;;;6.28;100.00
17260;BME280;8746;49.230;9.220;2023-12-28T08:06:32;100132.22;;;6.22;100.00
17260;BME280;8746;49.230;9.220;2023-12-28T08:08:58;100124.28;;;6.27;100.00
17260;BME280;8746;49.230;9.220;2023-12-28T08:11:26;100122.47;;;6.29;100.00
17260;BME280;8746;49.230;9.220;2023-12-28T08:13:52;100126.91;;;6.27;100.00
17260;BME280;8746;49.230;9.220;2023-12-28T08:16:17;100129.47;;;6.28;100.00
17260;BME280;8746;49.230;9.220;2023-12-28T08:18:42;100119.84;;;6.30;100.00
17260;BME280;8746;49.230;9.220;2023-12-28T08:21:07;100126.91;;;6.25;100.00
17260;BME280;8746;49.230;9.220;2023-12-28T08:23:33;100122.47;;;6.30;100.00
17260;BME280;8746;49.230;9.220;2023-12-28T08:25:58;100126.69;;;6.36;100.00
17260;BME280;8746;49.230;9.220;2023-12-28T08:28:23;100133.75;;;6.34;100.00
17260;BME280;8746;49.230;9.220;2023-12-28T08:30:49;100120.69;;;6.31;100.00
17260;BME280;8746;49.230;9.220;2023-12-28T08:33:14;100128.50;;;6.34;100.00
17260;BME280;8746;49.230;9.220;2023-12-28T08:35:39;100127.72;;;6.30;100.00
17260;BME280;8746;49.230;9.220;2023-12-28T08:38:05;100133.88;;;6.26;100.00
17260;BME280;8746;49.230;9.220;2023-12-28T08:40:31;100125.88;;;6.34;100.00
17260;BME280;8746;49.230;9.220;2023-12-28T08:42:57;100132.78;;;6.38;100.00
17260;BME280;8746;49.230;9.220;2023-12-28T08:45:22;100143.06;;;6.49;100.00
17260;BME280;8746;49.230;9.220;2023-12-28T08:47:47;100143.84;;;6.52;100.00
17260;BME280;8746;49.230;9.220;2023-12-28T08:50:13;100141.09;;;6.58;100.00
17260;BME280;8746;49.230;9.220;2023-12-28T08:52:38;100137.44;;;6.67;100.00
17260;BME280;8746;49.230;9.220;2023-12-28T08:55:04;100144.31;;;6.71;100.00
17260;BME280;8746;49.230;9.220;2023-12-28T08:57:30;100144.19;;;6.79;100.00
17260;BME280;8746;49.230;9.220;2023-12-28T08:59:56;100140.72;;;6.77;100.00
17260;BME280;8746;49.230;9.220;2023-12-28T09:02:21;100139.72;;;6.83;100.00
17260;BME280;8746;49.230;9.220;2023-12-28T09:04:48;100134.38;;;6.87;100.00
17260;BME280;8746;49.230;9.220;2023-12-28T09:07:13;100139.59;;;6.89;100.00
17260;BME280;8746;49.230;9.220;2023-12-28T09:09:39;100136.03;;;6.92;100.00
17260;BME280;8746;49.230;9.220;2023-12-28T09:12:05;100129.91;;;6.93;100.00
17260;BME280;8746;49.230;9.220;2023-12-28T09:14:30;100132.34;;;7.00;100.00
17260;BME280;8746;49.230;9.220;2023-12-28T09:16:55;100137.63;;;6.99;100.00
17260;BME280;8746;49.230;9.220;2023-12-28T09:19:22;100138.38;;;7.04;100.00
17260;BME280;8746;49.230;9.220;2023-12-28T09:21:47;100142.75;;;7.05;100.00
17260;BME280;8746;49.230;9.220;2023-12-28T09:24:13;100151.41;;;7.07;100.00
17260;BME280;8746;49.230;9.220;2023-12-28T09:26:41;100145.28;;;7.08;100.00
17260;BME280;8746;49.230;9.220;2023-12-28T09:29:06;100154.88;;;7.09;100.00
17260;BME280;8746;49.230;9.220;2023-12-28T09:31:34;100161.91;;;7.09;100.00
17260;BME280;8746;49.230;9.220;2023-12-28T09:33:59;100162.75;;;7.09;100.00
17260;BME280;8746;49.230;9.220;2023-12-28T09:36:25;100163.50;;;7.14;100.00
17260;BME280;8746;49.230;9.220;2023-12-28T09:38:50;100162.69;;;7.12;100.00
17260;BME280;8746;49.230;9.220;2023-12-28T09:41:18;100164.44;;;7.13;100.00
17260;BME280;8746;49.230;9.220;2023-12-28T09:44:00;100166.25;;;7.10;100.00
17260;BME280;8746;49.230;9.220;2023-12-28T09:46:30;100168.84;;;7.11;100.00
17260;BME280;8746;49.230;9.220;2023-12-28T09:48:58;100164.34;;;7.16;100.00
17260;BME280;8746;49.230;9.220;2023-12-28T09:51:24;100166.91;;;7.18;100.00
17260;BME280;8746;49.230;9.220;2023-12-28T09:53:50;100170.34;;;7.21;100.00
17260;BME280;8746;49.230;9.220;2023-12-28T09:56:16;100178.00;;;7.31;100.00
17260;BME280;8746;49.230;9.220;2023-12-28T09:58:42;100180.69;;;7.28;100.00
17260;BME280;8746;49.230;9.220;2023-12-28T10:01:10;100189.13;;;7.42;100.00
17260;BME280;8746;49.230;9.220;2023-12-28T10:03:36;100181.25;;;7.42;100.00
17260;BME280;8746;49.230;9.220;2023-12-28T10:06:01;100182.91;;;7.46;100.00
17260;BME280;8746;49.230;9.220;2023-12-28T10:08:27;100181.03;;;7.51;100.00
17260;BME280;8746;49.230;9.220;2023-12-28T10:10:52;100175.78;;;7.51;100.00
17260;BME280;8746;49.230;9.220;2023-12-28T10:13:19;100172.19;;;7.56;100.00
17260;BME280;8746;49.230;9.220;2023-12-28T10:15:45;100182.69;;;7.56;100.00
17260;BME280;8746;49.230;9.220;2023-12-28T10:18:10;100166.78;;;7.62;100.00
17260;BME280;8746;49.230;9.220;2023-12-28T10:20:36;100163.25;;;7.63;100.00
17260;BME280;8746;49.230;9.220;2023-12-28T10:23:01;100167.16;;;7.82;100.00
17260;BME280;8746;49.230;9.220;2023-12-28T10:25:28;100157.53;;;7.81;100.00
17260;BME280;8746;49.230;9.220;2023-12-28T10:27:54;100145.31;;;7.80;100.00
17260;BME280;8746;49.230;9.220;2023-12-28T10:30:20;100146.97;;;7.84;100.00
17260;BME280;8746;49.230;9.220;2023-12-28T10:32:45;100138.25;;;7.82;100.00
17260;BME280;8746;49.230;9.220;2023-12-28T10:35:11;100126.53;;;7.96;100.00
17260;BME280;8746;49.230;9.220;2023-12-28T10:37:39;100136.19;;;7.94;100.00
17260;BME280;8746;49.230;9.220;2023-12-28T10:40:06;100134.78;;;7.80;100.00
17260;BME280;8746;49.230;9.220;2023-12-28T10:42:34;100133.78;;;7.86;100.00
17260;BME280;8746;49.230;9.220;2023-12-28T10:45:04;100134.78;;;7.80;100.00
17260;BME280;8746;49.230;9.220;2023-12-28T10:47:37;100123.28;;;7.86;100.00
17260;BME280;8746;49.230;9.220;2023-12-28T10:50:04;100123.28;;;7.86;100.00
17260;BME280;8746;49.230;9.220;2023-12-28T10:52:31;100132.00;;;7.88;100.00
17260;BME280;8746;49.230;9.220;2023-12-28T10:55:27;100120.59;;;7.88;100.00
17260;BME280;8746;49.230;9.220;2023-12-28T10:58:11;100118.88;;;7.86;100.00
17260;BME280;8746;49.230;9.220;2023-12-28T11:00:41;100104.69;;;7.94;100.00
17260;BME280;8746;49.230;9.220;2023-12-28T11:03:11;100106.00;;;8.10;100.00
17260;BME280;8746;49.230;9.220;2023-12-28T11:05:37;100108.41;;;8.18;100.00
17260;BME280;8746;49.230;9.220;2023-12-28T11:08:04;100107.44;;;8.22;100.00
17260;BME280;8746;49.230;9.220;2023-12-28T11:10:32;100117.78;;;8.27;100.00
17260;BME280;8746;49.230;9.220;2023-12-28T11:12:59;100106.44;;;8.26;100.00
17260;BME280;8746;49.230;9.220;2023-12-28T11:15:26;100109.19;;;8.22;100.00
17260;BME280;8746;49.230;9.220;2023-12-28T11:17:52;100107.88;;;8.38;100.00
17260;BME280;8746;49.230;9.220;2023-12-28T11:20:18;100115.69;;;8.40;100.00
17260;BME280;8746;49.230;9.220;2023-12-28T11:22:44;100107.44;;;8.54;100.00
17260;BME280;8746;49.230;9.220;2023-12-28T11:25:17;100110.00;;;8.57;100.00
17260;BME280;8746;49.230;9.220;2023-12-28T11:27:44;100121.34;;;8.59;100.00
17260;BME280;8746;49.230;9.220;2023-12-28T11:30:10;100116.38;;;8.78;100.00
17260;BME280;8746;49.230;9.220;2023-12-28T11:32:36;100103.28;;;8.76;100.00
17260;BME280;8746;49.230;9.220;2023-12-28T11:35:02;100106.56;;;8.83;100.00
17260;BME280;8746;49.230;9.220;2023-12-28T11:37:32;100101.81;;;8.66;100.00
17260;BME280;8746;49.230;9.220;2023-12-28T11:39:58;100100.06;;;8.66;100.00
17260;BME280;8746;49.230;9.220;2023-12-28T11:42:26;100097.66;;;8.59;100.00
17260;BME280;8746;49.230;9.220;2023-12-28T11:44:55;100104.44;;;8.66;100.00
17260;BME280;8746;49.230;9.220;2023-12-28T11:47:22;100104.97;;;8.47;100.00
17260;BME280;8746;49.230;9.220;2023-12-28T11:49:48;100109.56;;;8.39;100.00
17260;BME280;8746;49.230;9.220;2023-12-28T11:52:29;100112.34;;;8.34;100.00
17260;BME280;8746;49.230;9.220;2023-12-28T11:54:55;100104.66;;;8.27;100.00
17260;BME280;8746;49.230;9.220;2023-12-28T11:57:21;100105.84;;;8.16;100.00
17260;BME280;8746;49.230;9.220;2023-12-28T11:59:54;100107.38;;;8.24;100.00
17260;BME280;8746;49.230;9.220;2023-12-28T12:02:20;100105.94;;;8.12;100.00
17260;BME280;8746;49.230;9.220;2023-12-28T12:04:46;100108.59;;;8.12;100.00
17260;BME280;8746;49.230;9.220;2023-12-28T12:07:11;100110.19;;;8.17;100.00
17260;BME280;8746;49.230;9.220;2023-12-28T12:09:36;100101.72;;;8.06;100.00
17260;BME280;8746;49.230;9.220;2023-12-28T12:12:02;100092.22;;;8.02;100.00
17260;BME280;8746;49.230;9.220;2023-12-28T12:14:28;100093.09;;;8.02;100.00
17260;BME280;8746;49.230;9.220;2023-12-28T12:16:54;100082.69;;;7.98;100.00
17260;BME280;8746;49.230;9.220;2023-12-28T12:19:22;100082.69;;;7.98;100.00
17260;BME280;8746;49.230;9.220;2023-12-28T12:21:48;100080.69;;;8.08;100.00
17260;BME280;8746;49.230;9.220;2023-12-28T12:24:13;100082.66;;;7.99;100.00
17260;BME280;8746;49.230;9.220;2023-12-28T12:26:38;100071.28;;;7.99;100.00
17260;BME280;8746;49.230;9.220;2023-12-28T12:29:04;100065.94;;;8.02;100.00
17260;BME280;8746;49.230;9.220;2023-12-28T12:31:30;100067.66;;;8.03;100.00
17260;BME280;8746;49.230;9.220;2023-12-28T12:33:56;100055.44;;;8.02;100.00
17260;BME280;8746;49.230;9.220;2023-12-28T12:36:21;100058.88;;;8.04;100.00
17260;BME280;8746;49.230;9.220;2023-12-28T12:38:47;100051.91;;;8.03;100.00
17260;BME280;8746;49.230;9.220;2023-12-28T12:41:13;100052.56;;;8.10;100.00
17260;BME280;8746;49.230;9.220;2023-12-28T12:43:40;100057.81;;;8.11;100.00
17260;BME280;8746;49.230;9.220;2023-12-28T12:46:06;100061.03;;;8.21;100.00
17260;BME280;8746;49.230;9.220;2023-12-28T12:48:31;100057.75;;;8.13;100.00
17260;BME280;8746;49.230;9.220;2023-12-28T12:50:57;100054.13;;;8.17;100.00
17260;BME280;8746;49.230;9.220;2023-12-28T12:53:22;100050.09;;;8.05;100.00
17260;BME280;8746;49.230;9.220;2023-12-28T12:55:47;100058.88;;;8.04;100.00